Time;durP1;ratioP1;P1;durP2;ratioP2;P2;SDS_P1;SDS_P2;PMS_P1;PMS_P2;Temp;Humidity;BMP_temperature;BMP_pressure;BME280_temperature;BME280_humidity;BME280_pressure;Samples;Min_cycle;Max_cycle;Signal;HPM_P1;HPM_P2
2023/11/23 00:00:38;;;;;;;6.80;4.90;;;;;;;8.45;76.51;95042.75;5086820;28;20041;-71
2023/11/23 00:03:04;;;;;;;6.38;5.00;;;;;;;8.44;76.35;95043.66;5071446;28;20028;-71
2023/11/23 00:05:30;;;;;;;7.00;4.47;;;;;;;8.49;76.35;95062.28;5070424;28;20029;-70
2023/11/23 00:07:55;;;;;;;7.18;4.55;;;;;;;8.48;76.64;95064.06;5072652;28;20065;-71
2023/11/23 00:10:21;;;;;;;5.60;4.20;;;;;;;8.54;76.48;95065.38;5069868;28;20441;-71
2023/11/23 00:12:46;;;;;;;7.15;4.75;;;;;;;8.55;76.37;95072.19;5105043;28;20029;-71
2023/11/23 00:15:12;;;;;;;5.70;3.67;;;;;;;8.53;76.43;95068.09;5087914;28;20034;-70
2023/11/23 00:17:37;;;;;;;7.53;4.30;;;;;;;8.48;76.76;95066.66;5103347;28;20033;-71
2023/11/23 00:20:06;;;;;;;6.03;4.20;;;;;;;8.44;77.25;95078.16;5071051;28;20037;-71
2023/11/23 00:22:32;;;;;;;6.00;4.75;;;;;;;8.43;77.83;95086.84;5087472;28;20055;-70
2023/11/23 00:24:58;;;;;;;6.22;4.80;;;;;;;8.34;78.18;95077.13;5072124;28;20029;-70
2023/11/23 00:27:23;;;;;;;5.63;3.95;;;;;;;8.18;78.82;95079.09;5070764;28;20535;-70
2023/11/23 00:29:49;;;;;;;5.75;4.50;;;;;;;8.22;79.86;95080.56;5104486;28;20055;-70
2023/11/23 00:32:14;;;;;;;6.22;4.25;;;;;;;8.22;79.88;95090.91;5104494;28;20094;-70
2023/11/23 00:34:40;;;;;;;5.90;4.50;;;;;;;8.23;80.20;95089.97;5071089;28;20033;-70
2023/11/23 00:37:08;;;;;;;6.63;4.55;;;;;;;8.02;80.82;95085.34;5070644;28;20032;-70
2023/11/23 00:39:34;;;;;;;6.82;4.68;;;;;;;7.99;81.01;95085.53;5070548;28;20035;-70
2023/11/23 00:41:59;;;;;;;6.80;4.50;;;;;;;8.03;81.01;95084.41;5071869;28;20029;-70
2023/11/23 00:44:25;;;;;;;4.95;3.95;;;;;;;8.03;80.98;95102.53;5087374;28;20024;-70
2023/11/23 00:46:51;;;;;;;5.75;3.88;;;;;;;8.07;80.87;95098.78;5070204;28;20041;-70
2023/11/23 00:49:16;;;;;;;6.45;4.63;;;;;;;8.07;81.02;95109.13;5104150;28;20078;-70
2023/11/23 00:51:42;;;;;;;6.60;3.90;;;;;;;8.15;80.80;95110.38;5104142;28;20472;-70
2023/11/23 00:54:07;;;;;;;6.75;4.07;;;;;;;8.21;81.20;95115.13;5102627;28;20063;-70
2023/11/23 00:56:33;;;;;;;6.07;4.20;;;;;;;8.16;81.31;95119.78;5070549;28;20041;-70
2023/11/23 00:58:58;;;;;;;6.55;4.82;;;;;;;8.03;81.03;95112.03;5070183;28;20025;-70
2023/11/23 01:01:24;;;;;;;7.03;4.25;;;;;;;7.92;81.63;95099.84;5070126;28;20028;-70
2023/11/23 01:03:50;;;;;;;5.57;4.43;;;;;;;8.04;81.41;95104.16;5069570;28;20056;-70
2023/11/23 01:06:16;;;;;;;6.05;4.22;;;;;;;8.01;81.40;95095.78;5053430;28;20464;-70
2023/11/23 01:08:41;;;;;;;4.90;3.70;;;;;;;8.12;81.58;95115.75;5087085;28;20555;-70
2023/11/23 01:11:06;;;;;;;5.72;4.38;;;;;;;8.05;81.25;95116.19;5069975;28;20028;-70
2023/11/23 01:13:32;;;;;;;5.65;4.05;;;;;;;8.10;81.47;95123.63;5070154;28;20094;-70
2023/11/23 01:15:58;;;;;;;6.05;4.45;;;;;;;7.92;81.68;95102.41;5086842;28;20028;-70
2023/11/23 01:18:23;;;;;;;7.00;4.63;;;;;;;8.02;81.69;95121.56;5070030;28;20047;-70
2023/11/23 01:20:50;;;;;;;4.90;3.92;;;;;;;8.02;81.84;95112.97;5103623;28;20541;-70
2023/11/23 01:23:16;;;;;;;6.40;4.00;;;;;;;8.02;81.75;95112.97;5070065;28;20043;-70
2023/11/23 01:25:41;;;;;;;5.55;4.00;;;;;;;8.05;81.94;95117.91;5070021;28;20032;-70
2023/11/23 01:28:06;;;;;;;5.20;4.00;;;;;;;8.10;81.82;95118.44;5069812;28;20025;-70
2023/11/23 01:30:32;;;;;;;6.57;4.47;;;;;;;8.07;81.96;95129.00;5068581;28;20035;-70
2023/11/23 01:32:57;;;;;;;6.50;4.80;;;;;;;7.99;82.09;95131.28;5069762;28;20033;-70
2023/11/23 01:35:23;;;;;;;4.85;4.13;;;;;;;8.06;82.00;95130.78;5102529;28;20494;-70
2023/11/23 01:37:49;;;;;;;6.32;4.35;;;;;;;7.78;82.23;95097.34;5067803;28;20032;-70
2023/11/23 01:40:15;;;;;;;6.15;4.03;;;;;;;8.00;81.92;95126.00;5051768;28;20422;-70
2023/11/23 01:42:41;;;;;;;4.75;3.85;;;;;;;8.15;81.80;95126.72;5069538;28;20115;-70
2023/11/23 01:45:07;;;;;;;5.82;3.80;;;;;;;8.10;81.53;95128.78;5085864;28;20032;-70
2023/11/23 01:47:32;;;;;;;5.10;4.05;;;;;;;8.00;82.09;95132.97;5068765;28;20024;-70
2023/11/23 01:49:58;;;;;;;4.70;3.72;;;;;;;7.94;82.44;95131.63;5102946;28;20066;-70
2023/11/23 01:52:24;;;;;;;5.60;4.10;;;;;;;7.97;82.39;95131.41;5102415;28;20029;-70
2023/11/23 01:54:50;;;;;;;7.10;4.28;;;;;;;7.98;82.52;95134.81;5086212;28;20059;-70
2023/11/23 01:57:16;;;;;;;6.07;4.68;;;;;;;7.94;82.22;95123.00;5051932;28;20083;-70
2023/11/23 01:59:41;;;;;;;5.63;4.00;;;;;;;7.95;82.38;95125.50;5086389;28;20040;-70
2023/11/23 02:02:07;;;;;;;5.32;3.67;;;;;;;8.06;82.34;95142.88;5086023;28;20415;-70
2023/11/23 02:04:32;;;;;;;5.55;4.07;;;;;;;8.11;82.26;95140.81;5070091;28;20029;-70
2023/11/23 02:06:58;;;;;;;5.03;3.80;;;;;;;8.00;82.67;95138.94;5053472;28;20028;-70
2023/11/23 02:09:24;;;;;;;5.57;4.15;;;;;;;8.03;82.35;95143.09;5073472;28;20029;-70
2023/11/23 02:11:49;;;;;;;5.50;4.07;;;;;;;7.96;82.56;95121.97;5090185;28;20120;-70
2023/11/23 02:14:15;;;;;;;5.70;3.72;;;;;;;8.09;82.56;95142.69;5072129;28;20047;-70
2023/11/23 02:16:40;;;;;;;5.13;4.20;;;;;;;8.07;82.36;95142.75;5090261;28;20039;-70
2023/11/23 02:19:06;;;;;;;5.85;4.18;;;;;;;8.05;82.37;95141.22;5073155;28;20031;-70
2023/11/23 02:21:31;;;;;;;6.15;3.90;;;;;;;7.94;82.42;95129.03;5074581;28;20032;-70
2023/11/23 02:23:57;;;;;;;5.18;3.90;;;;;;;7.95;82.44;95140.19;5072123;28;20032;-70
2023/11/23 02:26:22;;;;;;;5.60;3.90;;;;;;;7.94;82.63;95138.53;5056475;28;20470;-70
2023/11/23 02:28:47;;;;;;;8.90;4.30;;;;;;;7.87;82.63;95148.47;5106995;28;20028;-70
2023/11/23 02:31:13;;;;;;;5.15;3.72;;;;;;;7.85;82.90;95155.50;5106961;28;20025;-70
2023/11/23 02:33:38;;;;;;;5.57;3.92;;;;;;;7.97;82.69;95153.88;5088375;28;20043;-70
2023/11/23 02:36:04;;;;;;;7.10;4.50;;;;;;;7.93;82.89;95153.22;5073093;28;20379;-70
2023/11/23 02:38:30;;;;;;;5.68;4.10;;;;;;;7.95;82.89;95150.53;5074613;28;20056;-70
2023/11/23 02:40:57;;;;;;;5.35;4.13;;;;;;;7.98;82.63;95161.50;5072622;28;20090;-71
2023/11/23 02:43:24;;;;;;;5.88;3.78;;;;;;;7.99;82.75;95157.16;5089624;28;20043;-70
2023/11/23 02:45:49;;;;;;;5.40;3.97;;;;;;;7.96;82.77;95159.94;5106531;28;20071;-70
2023/11/23 02:48:14;;;;;;;5.82;4.18;;;;;;;7.74;82.90;95137.28;5073855;28;20037;-70
2023/11/23 02:50:40;;;;;;;6.60;4.35;;;;;;;7.69;82.95;95144.50;5105147;28;20028;-70
2023/11/23 02:53:05;;;;;;;5.90;4.30;;;;;;;7.76;83.08;95151.75;5106733;28;20037;-71
2023/11/23 02:55:31;;;;;;;5.53;4.18;;;;;;;7.65;82.85;95132.72;5089339;28;20064;-70
2023/11/23 02:57:56;;;;;;;5.72;4.13;;;;;;;7.94;82.86;95160.06;5074150;28;20032;-70
2023/11/23 03:00:22;;;;;;;6.22;4.28;;;;;;;7.88;82.87;95175.16;5071132;28;20678;-70
2023/11/23 03:02:48;;;;;;;6.78;4.40;;;;;;;7.82;83.32;95177.22;5072506;28;20096;-70
2023/11/23 03:05:13;;;;;;;4.43;3.30;;;;;;;7.86;83.19;95175.25;5072557;28;20036;-70
2023/11/23 03:07:39;;;;;;;5.05;3.65;;;;;;;7.92;82.99;95192.13;5071058;28;20025;-70
2023/11/23 03:10:05;;;;;;;5.75;4.07;;;;;;;7.83;82.88;95185.81;5071006;28;20541;-70
2023/11/23 03:12:30;;;;;;;5.75;4.22;;;;;;;7.90;83.15;95189.63;5089061;28;20418;-70
2023/11/23 03:14:56;;;;;;;4.82;3.80;;;;;;;7.99;82.85;95196.78;5106139;28;20036;-70
2023/11/23 03:17:21;;;;;;;4.88;3.47;;;;;;;7.94;82.46;95180.75;5070954;28;22988;-70
2023/11/23 03:19:47;;;;;;;4.93;3.50;;;;;;;8.02;82.35;95180.22;5071140;28;20032;-70
2023/11/23 03:22:12;;;;;;;4.90;3.40;;;;;;;8.12;81.99;95188.22;5072201;28;20036;-70
2023/11/23 03:24:38;;;;;;;5.30;3.58;;;;;;;8.17;82.13;95196.50;5105887;28;20039;-70
2023/11/23 03:27:04;;;;;;;5.45;3.90;;;;;;;8.11;82.05;95196.91;5070743;28;20039;-70
2023/11/23 03:29:29;;;;;;;4.97;3.90;;;;;;;8.13;82.06;95195.84;5073271;28;20024;-70
2023/11/23 03:31:54;;;;;;;5.25;4.05;;;;;;;8.06;82.23;95192.03;5088768;28;20036;-70
2023/11/23 03:34:20;;;;;;;5.32;3.92;;;;;;;8.07;82.19;95204.03;5088749;28;20028;-70
2023/11/23 03:36:46;;;;;;;5.75;3.70;;;;;;;8.06;82.19;95184.28;5087502;28;20505;-70
2023/11/23 03:39:12;;;;;;;4.80;3.80;;;;;;;8.10;82.42;95198.66;5105981;28;20479;-70
2023/11/23 03:41:37;;;;;;;5.30;3.80;;;;;;;8.07;82.27;95201.44;5072997;28;20021;-70
2023/11/23 03:44:03;;;;;;;6.25;3.63;;;;;;;8.05;82.10;95203.31;5072995;28;20036;-70
2023/11/23 03:46:28;;;;;;;4.63;3.25;;;;;;;8.06;82.35;95190.28;5103678;28;20033;-70
2023/11/23 03:48:54;;;;;;;5.25;3.50;;;;;;;8.11;82.21;95196.91;5072856;28;20089;-70
2023/11/23 03:51:19;;;;;;;6.07;3.53;;;;;;;8.13;81.69;95195.84;5084921;28;20028;-70
2023/11/23 03:53:44;;;;;;;5.10;3.63;;;;;;;8.07;82.07;95207.44;5047636;28;20036;-70
2023/11/23 03:56:15;;;;;;;5.15;3.63;;;;;;;7.75;82.64;95206.19;5069707;28;20415;-70
2023/11/23 03:58:41;;;;;;;4.33;3.50;;;;;;;7.77;82.65;95192.22;5087545;28;20111;-70
2023/11/23 04:01:07;;;;;;;4.20;3.13;;;;;;;7.87;82.56;95218.31;5068963;28;20060;-70
2023/11/23 04:03:32;;;;;;;4.38;3.35;;;;;;;7.78;82.84;95216.31;5042744;28;20466;-70
2023/11/23 04:05:58;;;;;;;5.10;3.33;;;;;;;7.73;83.27;95214.03;5060522;28;20024;-70
2023/11/23 04:08:23;;;;;;;4.35;3.58;;;;;;;7.70;83.46;95208.25;5069025;28;20033;-70
2023/11/23 04:10:49;;;;;;;4.10;3.05;;;;;;;7.68;83.81;95216.09;5069112;28;20024;-70
2023/11/23 04:13:14;;;;;;;3.65;2.60;;;;;;;7.68;83.57;95210.09;5050133;28;20040;-70
2023/11/23 04:15:40;;;;;;;3.25;2.55;;;;;;;7.56;83.81;95214.31;5053930;28;20780;-70
2023/11/23 04:18:05;;;;;;;3.80;2.67;;;;;;;7.51;83.98;95214.59;5068968;28;20028;-70
2023/11/23 04:20:31;;;;;;;3.45;2.47;;;;;;;7.48;84.26;95211.38;5071537;28;20051;-70
2023/11/23 04:22:57;;;;;;;4.13;2.70;;;;;;;7.49;84.41;95210.44;5067123;28;20443;-70
2023/11/23 04:25:22;;;;;;;3.17;2.45;;;;;;;7.53;84.05;95211.91;5070394;28;20048;-70
2023/11/23 04:27:47;;;;;;;3.35;2.50;;;;;;;7.54;84.17;95218.72;5070540;28;20483;-70
2023/11/23 04:30:13;;;;;;;3.75;2.45;;;;;;;7.55;84.41;95213.47;5069250;28;20066;-70
2023/11/23 04:32:38;;;;;;;3.88;2.78;;;;;;;7.61;84.36;95226.00;5051625;28;20395;-70
2023/11/23 04:35:04;;;;;;;3.67;2.45;;;;;;;7.36;84.67;95213.81;5067873;28;20032;-70
2023/11/23 04:37:30;;;;;;;12.60;8.05;;;;;;;7.37;84.89;95214.66;5072478;28;20024;-70
2023/11/23 04:39:55;;;;;;;6.32;4.97;;;;;;;7.30;85.07;95179.78;5068431;28;20040;-69
2023/11/23 04:42:20;;;;;;;3.70;2.50;;;;;;;7.60;84.50;95215.75;5084503;28;20043;-70
2023/11/23 04:44:46;;;;;;;5.88;2.38;;;;;;;7.62;84.56;95200.97;5075371;28;20036;-70
2023/11/23 04:47:11;;;;;;;3.20;2.45;;;;;;;7.63;84.07;95210.38;5070834;28;20028;-70
2023/11/23 04:49:37;;;;;;;5.07;3.38;;;;;;;7.52;84.53;95205.94;5069933;28;20033;-70
2023/11/23 04:52:02;;;;;;;5.47;4.57;;;;;;;7.70;84.03;95208.25;5069273;28;20040;-70
2023/11/23 04:54:28;;;;;;;5.25;3.95;;;;;;;7.54;84.34;95214.38;5067908;28;20498;-70
2023/11/23 04:56:53;;;;;;;5.32;3.65;;;;;;;7.52;84.82;95226.59;5082631;28;20071;-70
2023/11/23 04:59:18;;;;;;;9.43;4.97;;;;;;;7.72;84.62;95232.25;5071031;28;20070;-70
2023/11/23 05:01:44;;;;;;;8.10;5.38;;;;;;;7.81;83.66;95229.06;5068384;28;20039;-70
2023/11/23 05:04:10;;;;;;;21.27;15.18;;;;;;;7.85;83.40;95227.91;5067508;28;20380;-70
2023/11/23 05:06:35;;;;;;;11.68;7.05;;;;;;;7.70;83.85;95237.50;5053022;28;20494;-69
2023/11/23 05:09:02;;;;;;;9.68;6.28;;;;;;;7.57;84.24;95224.53;5067690;28;20029;-70
2023/11/23 05:11:28;;;;;;;8.30;5.30;;;;;;;7.52;84.48;95231.78;5102560;28;20028;-70
2023/11/23 05:13:55;;;;;;;6.80;5.32;;;;;;;7.59;84.77;95237.38;5082888;28;20101;-70
2023/11/23 05:16:21;;;;;;;6.95;5.10;;;;;;;7.57;84.84;95223.69;5069048;28;20028;-70
2023/11/23 05:18:46;;;;;;;8.38;5.57;;;;;;;7.78;84.48;95247.38;5034773;28;20044;-70
2023/11/23 05:21:12;;;;;;;7.60;5.05;;;;;;;7.84;83.98;95247.78;5069897;28;20025;-70
2023/11/23 05:23:37;;;;;;;8.32;5.57;;;;;;;7.86;83.99;95250.28;5050039;28;20035;-70
2023/11/23 05:26:03;;;;;;;8.73;6.57;;;;;;;7.71;83.77;95223.63;5069358;28;20418;-69
2023/11/23 05:28:28;;;;;;;14.82;8.50;;;;;;;7.86;84.06;95239.94;5051744;28;20406;-69
2023/11/23 05:30:54;;;;;;;9.85;7.95;;;;;;;7.90;83.90;95232.78;5067621;28;20519;-71
2023/11/23 05:33:19;;;;;;;10.43;7.72;;;;;;;7.98;83.62;95246.06;5078839;28;20030;-70
2023/11/23 05:35:45;;;;;;;10.52;8.35;;;;;;;8.04;83.14;95246.47;5051383;28;20111;-69
2023/11/23 05:38:10;;;;;;;13.25;9.48;;;;;;;8.03;82.93;95251.75;5069467;28;20016;-70
2023/11/23 05:40:35;;;;;;;15.23;11.15;;;;;;;7.77;83.62;95235.34;5070182;28;20021;-69
2023/11/23 05:43:01;;;;;;;13.60;9.55;;;;;;;7.79;83.79;95251.59;5065273;28;20460;-69
2023/11/23 05:45:27;;;;;;;12.27;9.07;;;;;;;7.94;83.75;95254.94;5069586;28;20063;-70
2023/11/23 05:47:53;;;;;;;12.65;8.65;;;;;;;7.95;83.24;95248.84;5083922;28;20028;-69
2023/11/23 05:50:18;;;;;;;15.15;10.90;;;;;;;7.92;83.19;95236.13;5068854;28;20044;-70
2023/11/23 05:52:44;;;;;;;10.32;7.82;;;;;;;7.86;83.15;95255.47;5064493;28;20025;-69
2023/11/23 05:55:09;;;;;;;9.73;8.30;;;;;;;7.82;83.30;95259.97;5068694;28;20032;-69
2023/11/23 05:57:35;;;;;;;13.18;8.85;;;;;;;7.62;84.41;95268.19;5068730;28;20032;-69
2023/11/23 06:00:02;;;;;;;12.18;8.57;;;;;;;7.83;84.32;95273.75;5067630;28;20114;-69
2023/11/23 06:02:27;;;;;;;11.27;6.65;;;;;;;7.90;83.86;95272.41;5066903;28;20159;-69
2023/11/23 06:04:53;;;;;;;9.82;7.15;;;;;;;7.99;83.62;95278.75;5050503;28;20032;-70
2023/11/23 06:07:18;;;;;;;14.35;10.40;;;;;;;7.94;83.50;95283.38;5069845;28;20405;-69
2023/11/23 06:09:43;;;;;;;56.08;41.83;;;;;;;7.78;84.02;95273.22;5067676;28;20039;-70
2023/11/23 06:12:09;;;;;;;21.38;16.98;;;;;;;7.70;84.15;95275.47;5050580;28;20391;-70
2023/11/23 06:14:38;;;;;;;21.70;16.58;;;;;;;7.63;85.03;95284.53;5051185;28;20024;-69
2023/11/23 06:17:04;;;;;;;18.00;14.90;;;;;;;7.76;84.43;95283.66;5062920;28;20438;-69
2023/11/23 06:19:29;;;;;;;18.52;14.55;;;;;;;7.81;84.32;95288.53;5100787;28;20537;-70
2023/11/23 06:21:55;;;;;;;19.35;14.60;;;;;;;7.95;84.17;95290.25;5034512;28;20025;-70
2023/11/23 06:24:21;;;;;;;21.20;15.90;;;;;;;7.95;83.41;95275.53;5069688;28;20491;-70
2023/11/23 06:26:46;;;;;;;16.80;13.52;;;;;;;8.06;83.46;95292.97;5052266;28;20498;-70
2023/11/23 06:29:11;;;;;;;15.95;11.23;;;;;;;8.14;83.12;95295.06;5069272;28;20028;-70
2023/11/23 06:31:37;;;;;;;22.25;17.15;;;;;;;7.96;83.50;95294.47;5052385;28;20441;-70
2023/11/23 06:34:02;;;;;;;26.58;20.45;;;;;;;7.73;84.40;95280.44;5068820;28;20038;-70
2023/11/23 06:36:28;;;;;;;20.67;18.42;;;;;;;7.66;84.44;95285.19;5052572;28;20526;-70
2023/11/23 06:38:53;;;;;;;21.55;17.80;;;;;;;7.76;85.28;95304.34;5068046;28;20380;-70
2023/11/23 06:41:22;;;;;;;19.88;16.42;;;;;;;7.80;85.02;95292.91;5068515;28;20029;-70
2023/11/23 06:43:51;;;;;;;16.85;12.60;;;;;;;7.89;84.49;95298.41;5067847;28;20115;-70
2023/11/23 06:46:17;;;;;;;16.30;11.20;;;;;;;7.95;84.40;95298.00;5067233;28;20024;-70
2023/11/23 06:48:44;;;;;;;22.08;17.55;;;;;;;7.85;84.18;95290.00;5067737;28;20139;-70
2023/11/23 06:51:09;;;;;;;20.58;16.88;;;;;;;7.90;84.29;95303.47;5068129;28;20059;-70
2023/11/23 06:53:43;;;;;;;29.83;25.77;;;;;;;7.79;84.72;95293.81;5069311;28;20029;-70
2023/11/23 06:56:17;;;;;;;18.95;13.60;;;;;;;7.65;85.28;95287.88;5072779;28;20056;-70
2023/11/23 06:58:46;;;;;;;20.30;13.88;;;;;;;7.87;84.85;95289.91;5072648;28;20036;-70
2023/11/23 07:01:12;;;;;;;15.00;11.98;;;;;;;8.03;84.35;95288.81;5072163;28;20048;-70
2023/11/23 07:03:37;;;;;;;18.85;13.85;;;;;;;8.10;83.90;95291.00;5072573;28;20052;-70
2023/11/23 07:06:03;;;;;;;17.25;13.82;;;;;;;7.83;84.31;95269.41;5072534;28;20040;-70
2023/11/23 07:08:29;;;;;;;18.83;13.65;;;;;;;7.95;84.64;95275.53;5039311;28;20020;-70
2023/11/23 07:10:54;;;;;;;20.15;14.32;;;;;;;8.03;84.24;95268.13;5073532;28;20047;-70
2023/11/23 07:13:20;;;;;;;23.02;18.63;;;;;;;7.88;84.76;95265.69;5055869;28;20063;-70
2023/11/23 07:15:46;;;;;;;19.90;15.32;;;;;;;7.66;85.34;95261.91;5073471;28;20024;-70
2023/11/23 07:18:13;;;;;;;22.42;16.52;;;;;;;8.02;84.94;95281.13;5089107;28;20035;-70
2023/11/23 07:20:38;;;;;;;20.17;14.55;;;;;;;7.84;85.50;95278.00;5088856;28;20036;-70
2023/11/23 07:23:04;;;;;;;16.15;13.57;;;;;;;7.92;85.88;95275.75;5089094;28;20111;-70
2023/11/23 07:25:31;;;;;;;22.80;15.05;;;;;;;7.90;85.55;95287.13;5055439;28;20082;-70
2023/11/23 07:27:56;;;;;;;19.98;16.30;;;;;;;7.91;86.14;95292.22;5104385;28;20067;-71
2023/11/23 07:30:22;;;;;;;18.30;15.57;;;;;;;7.91;86.22;95301.69;5088384;28;20123;-69
2023/11/23 07:32:47;;;;;;;18.63;13.48;;;;;;;7.91;87.07;95304.28;5054890;28;20028;-70
2023/11/23 07:35:13;;;;;;;16.65;14.23;;;;;;;7.73;86.96;95301.13;5071526;28;20032;-70
2023/11/23 07:37:38;;;;;;;12.43;9.77;;;;;;;7.89;86.95;95307.00;5088166;28;20025;-70
2023/11/23 07:40:13;;;;;;;12.02;8.43;;;;;;;7.87;87.21;95306.25;5088616;28;20037;-70
2023/11/23 07:42:40;;;;;;;12.63;8.07;;;;;;;7.74;86.54;95307.94;5073217;28;20025;-70
2023/11/23 07:45:06;;;;;;;8.93;7.72;;;;;;;7.82;86.99;95305.72;5073030;28;20547;-70
2023/11/23 07:47:31;;;;;;;8.93;6.53;;;;;;;7.91;86.56;95309.47;5088609;28;20063;-69
2023/11/23 07:49:58;;;;;;;7.05;5.30;;;;;;;7.94;85.77;95310.13;5071414;28;20032;-70
2023/11/23 07:52:24;;;;;;;9.30;6.38;;;;;;;7.93;85.88;95305.84;5071768;28;20107;-70
2023/11/23 07:54:49;;;;;;;8.20;4.80;;;;;;;7.76;86.89;95301.75;5072813;28;20082;-70
2023/11/23 07:57:15;;;;;;;7.07;4.43;;;;;;;7.57;87.11;95303.84;5088214;28;20033;-70
2023/11/23 07:59:43;;;;;;;6.72;4.60;;;;;;;7.43;88.12;95291.78;5072538;28;20021;-70
2023/11/23 08:02:09;;;;;;;6.15;4.45;;;;;;;7.37;88.76;95279.25;5104393;28;20036;-70
2023/11/23 08:04:34;;;;;;;5.50;3.88;;;;;;;7.32;89.60;95286.47;5087366;28;20119;-70
2023/11/23 08:07:00;;;;;;;7.25;4.63;;;;;;;7.28;89.53;95274.69;5088032;28;20029;-69
2023/11/23 08:09:25;;;;;;;7.60;4.53;;;;;;;7.29;89.69;95260.81;5071895;28;20024;-68
2023/11/23 08:11:55;;;;;;;8.32;4.30;;;;;;;7.45;89.57;95274.44;5071936;28;20032;-69
2023/11/23 08:14:21;;;;;;;10.50;5.10;;;;;;;7.44;89.29;95280.56;5103418;28;20040;-69
2023/11/23 08:16:47;;;;;;;5.53;3.80;;;;;;;7.41;89.47;95285.06;5104832;28;20410;-69
2023/11/23 08:19:15;;;;;;;5.85;3.80;;;;;;;7.45;89.83;95271.03;5071307;28;20490;-70
2023/11/23 08:21:41;;;;;;;6.03;3.95;;;;;;;7.63;89.09;95284.53;5104082;28;20090;-69
2023/11/23 08:24:08;;;;;;;6.35;3.63;;;;;;;7.58;88.18;95287.44;5072522;28;20028;-69
2023/11/23 08:26:33;;;;;;;7.47;4.55;;;;;;;7.54;88.72;95297.13;5072208;28;20028;-69
2023/11/23 08:28:59;;;;;;;5.55;4.03;;;;;;;7.41;88.56;95285.06;5087660;28;20047;-69
2023/11/23 08:31:28;;;;;;;7.07;4.88;;;;;;;7.32;88.59;95281.31;5087192;28;20028;-69
2023/11/23 08:33:55;;;;;;;7.32;5.97;;;;;;;7.47;88.82;95295.88;5085081;28;20063;-69
2023/11/23 08:36:21;;;;;;;9.55;4.68;;;;;;;7.23;89.36;95297.38;5071682;28;20026;-69
2023/11/23 08:38:46;;;;;;;7.95;4.70;;;;;;;7.33;89.48;95299.31;5070674;28;20188;-69
2023/11/23 08:41:12;;;;;;;6.75;4.75;;;;;;;7.28;88.98;95301.34;5071966;28;20033;-69
2023/11/23 08:43:38;;;;;;;4.80;3.78;;;;;;;7.11;89.72;95286.88;5070133;28;20024;-69
2023/11/23 08:46:04;;;;;;;7.35;5.40;;;;;;;7.24;90.02;95299.03;5069326;28;20453;-69
2023/11/23 08:48:30;;;;;;;7.82;5.05;;;;;;;7.12;89.98;95290.28;5054101;28;20060;-69
2023/11/23 08:50:55;;;;;;;5.72;4.57;;;;;;;7.25;90.75;95287.78;5053726;28;20048;-69
2023/11/23 08:53:22;;;;;;;6.63;5.07;;;;;;;7.28;90.91;95282.44;5070591;28;20035;-69
2023/11/23 08:55:50;;;;;;;6.63;5.13;;;;;;;7.20;91.30;95271.75;5071470;28;20056;-69
2023/11/23 08:58:15;;;;;;;7.85;5.95;;;;;;;7.26;90.75;95276.53;5071921;28;20021;-69
2023/11/23 09:00:41;;;;;;;11.25;7.45;;;;;;;7.22;90.90;95273.31;5070339;28;20063;-69
2023/11/23 09:03:08;;;;;;;9.48;6.90;;;;;;;7.15;90.92;95259.91;5071650;28;20029;-69
2023/11/23 09:05:34;;;;;;;10.88;6.57;;;;;;;7.36;90.88;95286.19;5070237;28;20028;-69
2023/11/23 09:08:06;;;;;;;7.90;6.13;;;;;;;7.36;91.38;95290.53;5068858;28;20078;-69
2023/11/23 09:10:31;;;;;;;10.27;6.93;;;;;;;7.33;91.73;95277.81;5070180;28;20036;-69
2023/11/23 09:12:57;;;;;;;10.38;7.07;;;;;;;7.37;91.02;95289.59;5070209;28;20086;-69
2023/11/23 09:15:22;;;;;;;12.45;7.38;;;;;;;7.19;91.22;95254.56;5086939;28;20039;-68
2023/11/23 09:17:48;;;;;;;10.85;7.65;;;;;;;7.40;91.08;95284.25;5068011;28;20055;-69
2023/11/23 09:20:13;;;;;;;12.38;7.78;;;;;;;7.17;91.83;95246.91;5069488;28;20043;-69
2023/11/23 09:22:39;;;;;;;10.88;7.05;;;;;;;7.41;90.88;95279.88;5067827;28;20324;-69
2023/11/23 09:25:06;;;;;;;8.20;6.43;;;;;;;7.49;91.28;95272.47;5069323;28;20025;-69
2023/11/23 09:27:31;;;;;;;9.30;6.78;;;;;;;7.58;91.33;95256.41;5068985;28;20025;-69
2023/11/23 09:29:58;;;;;;;9.90;6.90;;;;;;;7.60;90.50;95265.72;5069520;28;20039;-69
2023/11/23 09:32:24;;;;;;;8.50;6.22;;;;;;;7.61;90.21;95254.44;5069971;28;20040;-69
2023/11/23 09:34:49;;;;;;;8.52;6.13;;;;;;;7.69;90.30;95256.56;5070440;28;20033;-69
2023/11/23 09:37:15;;;;;;;7.63;5.88;;;;;;;7.51;90.24;95224.94;5070839;28;20059;-69
2023/11/23 09:39:43;;;;;;;7.97;5.88;;;;;;;7.54;90.49;95235.06;5036446;28;20036;-69
2023/11/23 09:42:10;;;;;;;8.30;6.05;;;;;;;7.76;90.31;95249.22;5069686;28;20033;-69
2023/11/23 09:44:35;;;;;;;7.22;5.38;;;;;;;7.80;90.24;95255.81;5053116;28;20071;-69
2023/11/23 09:47:01;;;;;;;6.72;5.57;;;;;;;7.91;89.47;95261.16;5069572;28;20574;-69
2023/11/23 09:49:26;;;;;;;6.57;5.47;;;;;;;7.77;89.07;95256.03;5053033;28;20044;-69
2023/11/23 09:51:52;;;;;;;7.38;5.70;;;;;;;7.91;89.32;95253.41;5070718;28;20028;-69
2023/11/23 09:54:18;;;;;;;8.15;6.18;;;;;;;7.92;89.36;95242.13;5052972;28;20118;-69
2023/11/23 09:56:45;;;;;;;7.65;6.05;;;;;;;8.03;89.22;95244.81;5069560;28;20044;-69
2023/11/23 09:59:11;;;;;;;7.43;6.20;;;;;;;8.03;88.75;95236.25;5069582;28;20032;-69
2023/11/23 10:01:38;;;;;;;14.15;10.10;;;;;;;8.18;88.07;95236.97;5069408;28;20028;-70
2023/11/23 10:04:04;;;;;;;10.02;7.10;;;;;;;8.15;88.48;95245.75;5052900;28;20029;-69
2023/11/23 10:06:29;;;;;;;9.30;6.63;;;;;;;8.15;88.10;95232.00;5070630;28;20025;-69
2023/11/23 10:08:55;;;;;;;6.25;5.05;;;;;;;8.06;87.83;95221.34;5070570;28;20032;-69
2023/11/23 10:11:21;;;;;;;11.82;6.60;;;;;;;8.27;88.03;95229.44;5035771;28;20525;-69
2023/11/23 10:13:46;;;;;;;10.13;6.00;;;;;;;8.19;88.06;95233.44;5069365;28;20086;-69
2023/11/23 10:16:12;;;;;;;8.27;5.60;;;;;;;8.23;87.58;95237.50;5069454;28;20028;-69
2023/11/23 10:18:38;;;;;;;13.60;8.13;;;;;;;8.21;87.66;95235.00;5052816;28;20017;-69
2023/11/23 10:21:03;;;;;;;55.60;23.10;;;;;;;8.13;87.96;95234.69;5069393;28;20037;-69
2023/11/23 10:23:29;;;;;;;20.58;10.90;;;;;;;8.13;88.09;95233.84;5069382;28;20044;-69
2023/11/23 10:25:54;;;;;;;19.10;9.20;;;;;;;8.17;88.16;95224.97;5069299;28;20040;-69
2023/11/23 10:28:22;;;;;;;6.30;5.38;;;;;;;8.22;88.04;95220.31;5071179;28;20056;-69
2023/11/23 10:30:49;;;;;;;6.72;4.97;;;;;;;8.21;87.46;95214.28;5056708;28;20501;-69
2023/11/23 10:33:14;;;;;;;6.07;4.10;;;;;;;8.22;87.60;95213.38;5056850;28;20043;-69
2023/11/23 10:35:50;;;;;;;7.97;4.22;;;;;;;8.20;87.68;95215.25;5056370;28;20029;-69
2023/11/23 10:38:15;;;;;;;5.90;3.95;;;;;;;8.14;87.84;95209.66;5073244;28;20025;-69
2023/11/23 10:40:41;;;;;;;5.82;3.88;;;;;;;8.16;88.58;95207.78;5039688;28;20035;-69
2023/11/23 10:43:09;;;;;;;5.07;3.80;;;;;;;8.10;87.69;95200.44;5074501;28;20032;-69
2023/11/23 10:45:36;;;;;;;5.20;4.15;;;;;;;8.00;88.37;95189.88;5072991;28;20033;-69
2023/11/23 10:48:01;;;;;;;5.43;3.85;;;;;;;8.05;88.70;95193.81;5056462;28;20036;-69
2023/11/23 10:50:26;;;;;;;4.50;3.83;;;;;;;8.13;88.80;95189.88;5072764;28;20033;-70
2023/11/23 10:52:55;;;;;;;6.35;4.22;;;;;;;8.15;88.79;95188.84;5072805;28;20032;-69
2023/11/23 10:55:20;;;;;;;6.25;4.32;;;;;;;8.12;89.10;95172.69;5056031;28;20052;-69
2023/11/23 10:57:47;;;;;;;9.82;6.90;;;;;;;8.20;88.71;95175.59;5073745;28;20024;-69
2023/11/23 11:00:15;;;;;;;11.43;7.82;;;;;;;8.33;88.63;95180.75;5072627;28;20020;-69
2023/11/23 11:02:42;;;;;;;14.45;8.60;;;;;;;8.32;88.33;95168.75;5073986;28;20031;-69
2023/11/23 11:05:46;;;;;;;9.80;5.13;;;;;;;8.23;89.09;95168.44;5072590;28;20036;-69
2023/11/23 11:08:18;;;;;;;9.32;6.18;;;;;;;8.24;88.91;95158.91;4995139;28;20053;-69
2023/11/23 11:10:43;;;;;;;9.90;6.35;;;;;;;8.23;89.39;95165.03;5064491;28;20048;-69
2023/11/23 11:13:13;;;;;;;8.15;6.13;;;;;;;8.14;89.20;95144.97;5073485;28;20526;-69
2023/11/23 11:15:52;;;;;;;10.05;7.15;;;;;;;8.45;89.06;95161.84;5072273;28;20541;-70
2023/11/23 11:18:25;;;;;;;11.55;7.40;;;;;;;8.55;88.42;95156.84;5072534;28;20070;-69
2023/11/23 11:21:07;;;;;;;8.90;5.90;;;;;;;8.65;87.73;95160.44;5072332;28;20033;-69
2023/11/23 11:23:39;;;;;;;;;;;;;;;8.73;87.00;95158.16;5056058;28;20028;-69
2023/11/23 11:26:18;;;;;;;9.20;4.75;;;;;;;8.51;86.26;95145.88;5073431;28;19985;-69
2023/11/23 11:28:53;;;;;;;7.43;5.43;;;;;;;8.44;87.18;95142.03;5055680;28;20429;-69
2023/11/23 11:31:19;;;;;;;6.85;4.78;;;;;;;8.42;87.00;95147.34;5071957;28;20082;-69
2023/11/23 11:33:45;;;;;;;7.15;4.13;;;;;;;8.46;86.79;95130.66;5055197;28;20541;-69